createdAt,value
2019-01-23T00:01:32.577Z,10.9
2019-01-23T00:06:37.545Z,11.6
2019-01-23T00:11:43.366Z,9.8
2019-01-23T00:16:49.080Z,10.3
2019-01-23T00:21:54.182Z,9.8
2019-01-23T00:26:59.264Z,9.8
2019-01-23T00:32:04.444Z,9.3
2019-01-23T00:37:09.541Z,10.9
2019-01-23T00:42:14.561Z,11.1
2019-01-23T00:47:19.708Z,10.3
2019-01-23T00:52:24.869Z,10.4
2019-01-23T00:57:30.038Z,9.9
2019-01-23T01:02:35.110Z,9
2019-01-23T01:07:40.175Z,8.8
2019-01-23T01:12:45.564Z,9.1
2019-01-23T01:17:50.556Z,10
2019-01-23T01:22:54.906Z,10.1
2019-01-23T01:28:00.634Z,9.6
2019-01-23T01:33:05.684Z,8.8
2019-01-23T01:38:10.999Z,8.1
2019-01-23T01:43:16.628Z,9.4
2019-01-23T01:48:21.535Z,8.1
2019-01-23T01:53:26.732Z,8.1
2019-01-23T01:58:32.898Z,8
2019-01-23T02:03:38.829Z,9.1
2019-01-23T02:08:43.960Z,9.7
2019-01-23T02:13:49.214Z,10.1
2019-01-23T02:18:55.084Z,9.5
2019-01-23T02:24:00.558Z,9
2019-01-23T02:29:09.427Z,8.9
2019-01-23T02:34:05.761Z,8.8
2019-01-23T02:39:09.613Z,7.7
2019-01-23T02:44:15.764Z,8.1
2019-01-23T02:49:20.894Z,8.8
2019-01-23T02:54:26.596Z,7.6
2019-01-23T02:59:32.262Z,9
2019-01-23T03:04:37.405Z,8.8
2019-01-23T03:09:43.054Z,8.1
2019-01-23T03:14:46.093Z,8.2
2019-01-23T03:19:51.237Z,8.7
2019-01-23T03:24:56.697Z,9
2019-01-23T03:30:01.920Z,8.1
2019-01-23T03:35:07.544Z,10.1
2019-01-23T03:40:13.204Z,8.6
2019-01-23T03:45:18.877Z,7.9
2019-01-23T03:50:24.213Z,8
2019-01-23T03:55:30.317Z,7.4
2019-01-23T04:00:35.748Z,7.5
2019-01-23T04:05:41.656Z,7.3
2019-01-23T04:10:47.577Z,8.3
2019-01-23T04:15:52.818Z,7.6
2019-01-23T04:20:58.552Z,7.3
2019-01-23T04:26:04.519Z,9
2019-01-23T04:31:09.919Z,7.7
2019-01-23T04:36:15.335Z,9
2019-01-23T04:41:20.646Z,7.5
2019-01-23T04:46:25.344Z,9.2
2019-01-23T04:51:31.304Z,8
2019-01-23T04:56:36.907Z,7.3
2019-01-23T05:01:42.653Z,7.4
2019-01-23T05:06:47.835Z,7.8
2019-01-23T05:11:53.257Z,6.8
2019-01-23T05:16:58.731Z,5.9
2019-01-23T05:22:04.454Z,7.3
2019-01-23T05:27:10.317Z,6.6
2019-01-23T05:32:15.949Z,5.9
2019-01-23T05:37:21.975Z,10.7
2019-01-23T05:42:27.517Z,11.6
2019-01-23T05:47:33.296Z,11.3
2019-01-23T05:52:39.504Z,8.7
2019-01-23T05:57:43.776Z,7.8
2019-01-23T06:02:48.462Z,9.8
2019-01-23T06:07:53.438Z,15.3
2019-01-23T06:12:57.061Z,8.6
2019-01-23T06:18:02.377Z,11.2
2019-01-23T06:23:07.493Z,17.3
2019-01-23T06:28:12.744Z,11.3
2019-01-23T06:33:18.315Z,10.4
2019-01-23T06:38:24.171Z,8.7
2019-01-23T06:43:29.323Z,8.7
2019-01-23T06:48:34.959Z,9.1
2019-01-23T06:53:40.556Z,7.6
2019-01-23T06:58:46.441Z,8.3
2019-01-23T07:03:51.497Z,10.6
2019-01-23T07:08:57.227Z,8.8
2019-01-23T07:14:02.877Z,7.8
2019-01-23T07:19:08.132Z,8.1
2019-01-23T07:24:13.656Z,7.5
2019-01-23T07:29:19.243Z,7.8
2019-01-23T07:34:24.902Z,8.7
2019-01-23T07:39:32.789Z,8.2
2019-01-23T07:44:38.334Z,8.4
2019-01-23T07:49:44.371Z,6.6
2019-01-23T07:54:49.389Z,7.4
2019-01-23T07:59:55.091Z,8
2019-01-23T08:05:00.241Z,7.9
2019-01-23T08:10:06.128Z,8.8
2019-01-23T08:15:11.758Z,12.9
2019-01-23T08:20:17.316Z,9.9
2019-01-23T08:25:24.672Z,10.5
2019-01-23T08:30:30.834Z,12.9
2019-01-23T08:35:34.915Z,11.4
2019-01-23T08:40:40.308Z,10.3
2019-01-23T08:45:46.750Z,8.3
2019-01-23T08:50:52.681Z,7.8
2019-01-23T08:55:57.864Z,7.1
2019-01-23T09:01:03.506Z,7.1
2019-01-23T09:06:09.373Z,4.9
2019-01-23T09:11:14.332Z,6.6
2019-01-23T09:16:19.746Z,5.3
2019-01-23T09:21:24.931Z,4.4
2019-01-23T09:26:30.217Z,4.5
2019-01-23T09:31:35.234Z,4.4
2019-01-23T09:36:40.935Z,5.3
2019-01-23T09:41:45.975Z,4.1
2019-01-23T09:46:51.685Z,3.9
2019-01-23T09:51:55.254Z,9.6
2019-01-23T09:57:00.252Z,3.1
2019-01-23T10:02:06.027Z,3.3
2019-01-23T10:07:11.064Z,5.7
2019-01-23T10:12:17.281Z,4
2019-01-23T10:17:22.406Z,2.9
2019-01-23T10:22:30.096Z,3
2019-01-23T10:27:35.733Z,3.3
2019-01-23T10:32:43.987Z,3.7
2019-01-23T10:37:49.000Z,2.7
2019-01-23T10:42:55.324Z,3.6
2019-01-23T10:48:00.243Z,2.8
2019-01-23T10:53:09.821Z,2.9
2019-01-23T10:58:15.386Z,3.5
2019-01-23T11:03:20.567Z,5.4
2019-01-23T11:08:26.932Z,3.6
2019-01-23T11:13:33.013Z,3.8
2019-01-23T11:18:38.564Z,4.3
2019-01-23T11:23:42.140Z,4.8
2019-01-23T11:28:47.911Z,6.5
2019-01-23T11:33:54.173Z,5
2019-01-23T11:38:59.192Z,3.8
2019-01-23T11:44:04.756Z,5.6
2019-01-23T11:49:10.712Z,5.3
2019-01-23T11:54:15.820Z,8.3
2019-01-23T11:59:22.498Z,10.8
2019-01-23T12:04:28.286Z,16.4
2019-01-23T12:09:33.857Z,13.7
2019-01-23T12:14:39.024Z,11.8
2019-01-23T12:19:43.154Z,13.9
2019-01-23T12:24:48.748Z,11.4
2019-01-23T12:29:55.006Z,10
2019-01-23T12:35:00.445Z,10.3
2019-01-23T12:40:08.889Z,6.9
2019-01-23T12:45:16.132Z,9
2019-01-23T12:50:20.563Z,9.3
2019-01-23T12:55:25.823Z,7.3
2019-01-23T13:00:31.094Z,7.5
2019-01-23T13:05:36.246Z,8.1
2019-01-23T13:10:42.404Z,12.3
2019-01-23T13:15:49.182Z,7.1
2019-01-23T13:20:52.973Z,8.7
2019-01-23T13:25:58.263Z,7
2019-01-23T13:31:04.056Z,7.8
2019-01-23T13:36:10.380Z,8.2
2019-01-23T13:41:15.485Z,7.7
2019-01-23T13:46:20.970Z,8.5
2019-01-23T13:51:26.864Z,8.3
2019-01-23T13:56:32.865Z,9.2
2019-01-23T14:01:38.851Z,9
2019-01-23T14:06:45.896Z,9.5
2019-01-23T14:11:51.115Z,8.9
2019-01-23T14:16:56.926Z,9.6
2019-01-23T14:22:01.881Z,8.5
2019-01-23T14:27:08.925Z,9.4
2019-01-23T14:32:18.369Z,9.4
2019-01-23T14:37:23.773Z,9.1
2019-01-23T14:42:29.779Z,9
2019-01-23T14:47:35.652Z,9.9
2019-01-23T14:52:42.467Z,8.2
2019-01-23T14:57:48.912Z,8.5
2019-01-23T15:02:54.142Z,9.8
2019-01-23T15:08:02.895Z,8.7
2019-01-23T15:13:03.398Z,10
2019-01-23T15:18:09.290Z,8.5
2019-01-23T15:23:15.622Z,9.9
2019-01-23T15:28:20.720Z,9.5
2019-01-23T15:33:25.909Z,9.2
2019-01-23T15:38:31.817Z,9.1
2019-01-23T15:43:36.994Z,14.2
2019-01-23T15:48:42.976Z,12.8
2019-01-23T15:53:49.137Z,11.1
2019-01-23T15:58:55.081Z,23.8
2019-01-23T16:03:59.112Z,16.9
2019-01-23T16:09:04.840Z,12.5
2019-01-23T16:14:08.992Z,13.9
2019-01-23T16:19:14.608Z,17
2019-01-23T16:24:20.361Z,15.3
2019-01-23T16:29:25.430Z,17.1
2019-01-23T16:34:30.599Z,11.5
2019-01-23T16:39:36.777Z,12.2
2019-01-23T16:44:42.325Z,10.2
2019-01-23T16:49:49.179Z,9.2
2019-01-23T16:54:53.544Z,9.3
2019-01-23T16:59:59.160Z,9.7
2019-01-23T17:05:04.519Z,8.9
2019-01-23T17:10:10.749Z,10.4
2019-01-23T17:15:17.226Z,10.3
2019-01-23T17:20:21.099Z,12.7
2019-01-23T17:25:26.231Z,19.2
2019-01-23T17:30:31.480Z,19.9
2019-01-23T17:35:37.177Z,15.6
2019-01-23T17:40:42.942Z,16.6
2019-01-23T17:45:48.240Z,28
2019-01-23T17:50:54.178Z,39
2019-01-23T17:56:00.988Z,33.1
2019-01-23T18:01:08.145Z,24.7
2019-01-23T18:06:08.354Z,25.3
2019-01-23T18:11:13.401Z,24.9
2019-01-23T18:16:19.216Z,27
2019-01-23T18:21:25.525Z,25
2019-01-23T18:26:37.606Z,24.9
2019-01-23T18:31:43.376Z,106.6
2019-01-23T18:36:45.430Z,110.2
2019-01-23T18:41:51.665Z,100.2
2019-01-23T18:46:57.880Z,86.4
2019-01-23T18:52:06.508Z,78.3
2019-01-23T18:57:14.638Z,65.9
2019-01-23T19:02:20.479Z,58.6
2019-01-23T19:07:28.088Z,55.3
2019-01-23T19:12:33.265Z,57.2
2019-01-23T19:17:39.144Z,61.3
2019-01-23T19:22:44.951Z,43.5
2019-01-23T19:27:50.902Z,35
2019-01-23T19:32:56.261Z,30.4
2019-01-23T19:38:01.976Z,24.3
2019-01-23T19:43:07.583Z,21.7
2019-01-23T19:48:13.336Z,17.5
2019-01-23T19:53:19.682Z,18.3
2019-01-23T19:58:25.397Z,15.5
2019-01-23T20:03:30.901Z,12.6
2019-01-23T20:08:36.699Z,10.8
2019-01-23T20:13:42.828Z,13.5
2019-01-23T20:18:47.893Z,12.7
2019-01-23T20:23:53.321Z,9.3
2019-01-23T20:28:59.446Z,9.1
2019-01-23T20:34:04.734Z,10
2019-01-23T20:39:14.628Z,7.9
2019-01-23T20:44:10.288Z,8.7
2019-01-23T20:49:15.476Z,9.9
2019-01-23T20:54:20.069Z,18.8
2019-01-23T20:59:27.390Z,7.3
2019-01-23T21:04:33.621Z,11.1
2019-01-23T21:09:39.180Z,6.8
2019-01-23T21:14:45.265Z,10.9
2019-01-23T21:19:51.463Z,10.2
2019-01-23T21:24:56.724Z,7.8
2019-01-23T21:30:01.715Z,7.7
2019-01-23T21:35:07.438Z,13.1
2019-01-23T21:40:13.048Z,8.4
2019-01-23T21:45:18.344Z,8
2019-01-23T21:50:24.068Z,9.8
2019-01-23T21:55:29.985Z,11.5
2019-01-23T22:00:35.355Z,10.4
2019-01-23T22:05:41.245Z,10.3
2019-01-23T22:10:47.226Z,13.1
2019-01-23T22:15:52.458Z,12.2
2019-01-23T22:20:58.041Z,13.7
2019-01-23T22:26:03.141Z,15
2019-01-23T22:31:08.041Z,11.8
2019-01-23T22:36:13.569Z,15.3
2019-01-23T22:41:19.533Z,11.5
2019-01-23T22:46:25.607Z,12.6
2019-01-23T22:51:30.978Z,10.9
2019-01-23T22:56:37.064Z,11.7
2019-01-23T23:01:42.196Z,9
2019-01-23T23:06:47.346Z,9.5
2019-01-23T23:11:52.865Z,10
2019-01-23T23:16:58.589Z,8.7
2019-01-23T23:22:04.293Z,8.7
2019-01-23T23:27:10.221Z,8.5
2019-01-23T23:32:15.808Z,11
2019-01-23T23:37:21.566Z,7.5
2019-01-23T23:42:26.740Z,8.3
2019-01-23T23:47:32.028Z,10.6
2019-01-23T23:52:37.585Z,8.4
2019-01-23T23:57:42.963Z,10.1
